Map

Track Data

SID SEASON NUMBER BASIN SUBBASIN NAME ISO_TIME NATURE LAT LON WMO_WIND WMO_PRES WMO_AGENCY TRACK_TYPE DIST2LAND LANDFALL IFLAG USA_AGENCY USA_ATCF_ID USA_LAT USA_LON USA_RECORD USA_STATUS USA_WIND USA_PRES USA_SSHS USA_R34_NE USA_R34_SE USA_R34_SW USA_R34_NW USA_R50_NE USA_R50_SE USA_R50_SW USA_R50_NW USA_R64_NE USA_R64_SE USA_R64_SW USA_R64_NW USA_POCI USA_ROCI USA_RMW USA_EYE TOKYO_LAT TOKYO_LON TOKYO_GRADE TOKYO_WIND TOKYO_PRES TOKYO_R50_DIR TOKYO_R50_LONG TOKYO_R50_SHORT TOKYO_R30_DIR TOKYO_R30_LONG TOKYO_R30_SHORT TOKYO_LAND CMA_LAT CMA_LON CMA_CAT CMA_WIND CMA_PRES HKO_LAT HKO_LON HKO_CAT HKO_WIND HKO_PRES NEWDELHI_LAT NEWDELHI_LON NEWDELHI_GRADE NEWDELHI_WIND NEWDELHI_PRES NEWDELHI_CI NEWDELHI_DP NEWDELHI_POCI REUNION_LAT REUNION_LON REUNION_TYPE REUNION_WIND REUNION_PRES REUNION_TNUM REUNION_CI REUNION_RMW REUNION_R34_NE REUNION_R34_SE REUNION_R34_SW REUNION_R34_NW REUNION_R50_NE REUNION_R50_SE REUNION_R50_SW REUNION_R50_NW REUNION_R64_NE REUNION_R64_SE REUNION_R64_SW REUNION_R64_NW BOM_LAT BOM_LON BOM_TYPE BOM_WIND BOM_PRES BOM_TNUM BOM_CI BOM_RMW BOM_R34_NE BOM_R34_SE BOM_R34_SW BOM_R34_NW BOM_R50_NE BOM_R50_SE BOM_R50_SW BOM_R50_NW BOM_R64_NE BOM_R64_SE BOM_R64_SW BOM_R64_NW BOM_ROCI BOM_POCI BOM_EYE BOM_POS_METHOD BOM_PRES_METHOD NADI_LAT NADI_LON NADI_CAT NADI_WIND NADI_PRES WELLINGTON_LAT WELLINGTON_LON WELLINGTON_WIND WELLINGTON_PRES DS824_LAT DS824_LON DS824_STAGE DS824_WIND DS824_PRES TD9636_LAT TD9636_LON TD9636_STAGE TD9636_WIND TD9636_PRES TD9635_LAT TD9635_LON TD9635_WIND TD9635_PRES TD9635_ROCI NEUMANN_LAT NEUMANN_LON NEUMANN_CLASS NEUMANN_WIND NEUMANN_PRES MLC_LAT MLC_LON MLC_CLASS MLC_WIND MLC_PRES USA_GUST BOM_GUST BOM_GUST_PER REUNION_GUST REUNION_GUST_PER USA_SEAHGT USA_SEARAD_NE USA_SEARAD_SE USA_SEARAD_SW USA_SEARAD_NW STORM_SPEED STORM_DIR
1854060S15069 1854 3 SI MM NOT_NAMED 1854-03-01 06:00:00 NR -15.3000 69.0000 reunion main 1310 1305 _____O________ -1 -15.3000 69.0000 99 9.90000 2 0
1854060S15069 1854 3 SI MM NOT_NAMED 1854-03-01 09:00:00 NR -15.3998 68.9887 main 1305 1300 _____P________ -1 -15.3998 68.9887 99 2 0
1854060S15069 1854 3 SI MM NOT_NAMED 1854-03-01 12:00:00 NR -15.5031 68.9784 main 1300 1295 _____P________ -1 -15.5031 68.9784 99 2 0
1854060S15069 1854 3 SI MM NOT_NAMED 1854-03-01 15:00:00 NR -15.6137 68.9703 main 1295 1291 _____P________ -1 -15.6137 68.9703 99 2 0
1854060S15069 1854 3 SI MM NOT_NAMED 1854-03-01 18:00:00 NR -15.7350 68.9654 main 1291 1281 _____P________ -1 -15.7350 68.9654 99 3 0
1854060S15069 1854 3 SI MM NOT_NAMED 1854-03-01 21:00:00 NR -15.8707 68.9649 main 1281 1277 _____P________ -1 -15.8707 68.9649 99 3 0
1854060S15069 1854 3 SI MM NOT_NAMED 1854-03-02 00:00:00 NR -16.0244 68.9697 main 1277 1268 _____P________ -1 -16.0244 68.9697 99 3 0
1854060S15069 1854 3 SI MM NOT_NAMED 1854-03-02 03:00:00 NR -16.1996 68.9810 main 1268 1259 _____P________ -1 -16.1996 68.9810 99 4 174
1854060S15069 1854 3 SI MM NOT_NAMED 1854-03-02 06:00:00 NR -16.4000 69.0000 reunion main 1259 1251 _____O________ -1 -16.4000 69.0000 99 9.90000 4 175
1854060S15069 1854 3 SI MM NOT_NAMED 1854-03-02 09:00:00 NR -16.6275 69.0272 main 1251 1243 _____P________ -1 -16.6275 69.0272 99 5 173
1854060S15069 1854 3 SI MM NOT_NAMED 1854-03-02 12:00:00 NR -16.8775 69.0612 main 1249 1242 _____P________ -1 -16.8775 69.0612 99 5 173
1854060S15069 1854 3 SI MM NOT_NAMED 1854-03-02 15:00:00 NR -17.1438 69.1001 main 1242 1232 _____P________ -1 -17.1438 69.1001 99 6 172
1854060S15069 1854 3 SI MM NOT_NAMED 1854-03-02 18:00:00 NR -17.4201 69.1419 main 1232 1229 _____P________ -1 -17.4201 69.1419 99 6 172
1854060S15069 1854 3 SI MM NOT_NAMED 1854-03-02 21:00:00 NR -17.7001 69.1848 main 1233 1224 _____P________ -1 -17.7001 69.1848 99 6 171
1854060S15069 1854 3 SI MM NOT_NAMED 1854-03-03 00:00:00 NR -17.9776 69.2268 main 1224 1221 _____P________ -1 -17.9776 69.2268 99 6 171
1854060S15069 1854 3 SI MM NOT_NAMED 1854-03-03 03:00:00 NR -18.2463 69.2658 main 1229 1222 _____P________ -1 -18.2463 69.2658 99 5 173
1854060S15069 1854 3 SI MM NOT_NAMED 1854-03-03 06:00:00 NR -18.5000 69.3000 reunion main 1222 1218 _____O________ -1 -18.5000 69.3000 99 9.90000 5 173
1854060S15069 1854 3 SI MM NOT_NAMED 1854-03-03 09:00:00 NR -18.7339 69.3277 main 1218 1214 _____P________ -1 -18.7339 69.3277 99 5 175
1854060S15069 1854 3 SI MM NOT_NAMED 1854-03-03 12:00:00 NR -18.9493 69.3494 main 1214 1214 _____P________ -1 -18.9493 69.3494 99 4 174
1854060S15069 1854 3 SI MM NOT_NAMED 1854-03-03 15:00:00 NR -19.1487 69.3658 main 1221 1218 _____P________ -1 -19.1487 69.3658 99 4 179
1854060S15069 1854 3 SI MM NOT_NAMED 1854-03-03 18:00:00 NR -19.3349 69.3779 main 1218 1215 _____P________ -1 -19.3349 69.3779 99 4 176
1854060S15069 1854 3 SI MM NOT_NAMED 1854-03-03 21:00:00 NR -19.5104 69.3865 main 1215 1213 _____P________ -1 -19.5104 69.3865 99 3 0
1854060S15069 1854 3 SI MM NOT_NAMED 1854-03-04 00:00:00 NR -19.6780 69.3925 main 1213 1212 _____P________ -1 -19.6780 69.3925 99 3 175
1854060S15069 1854 3 SI MM NOT_NAMED 1854-03-04 03:00:00 NR -19.8403 69.3967 main 1212 1211 _____P________ -1 -19.8403 69.3967 99 3 0
1854060S15069 1854 3 SI MM NOT_NAMED 1854-03-04 06:00:00 NR -20.0000 69.4000 reunion main 1211 _____O________ -1 -20.0000 69.4000 99 9.90000 3 0

About IBTrACS Database

This database is a web-friendly format of International Best Track Archive for Climate Stewardship (IBTrACS), a global best track data archive curated by NOAA dating back to 1842.

Updated: 2021-11-26